Letona, Arkansas
Current Conditions -  °F | °C
As of 3:56 PM on Friday 24 Oct 2014 (Local Time) from KSRC Reporting Station
Clear Clear  
Wind Chill: 76°   Ceiling: Unl
Heat Index: 76°   Visibility: 10mi
Dew Point: 57°   Wind: 5mph
Humidity: 52%   Direction: NA
Pressure: 30.09"   Gusts: NA
Location:  35.36°N, 91.83°W
Report Text: KSRC 242056Z AUTO VRB04KT 10SM CLR 24/14 A3009 RMK AO2 SLP195 T02440139 56020 TSNO
Loading
Personal Weather Stations






























Interactive Weather Map
Tropical Storm Tracking
New forecast layout! Learn more

10-Day Weather Forecast

Advertisements
Track Severe Weather on mobile